Time;durP1;ratioP1;P1;durP2;ratioP2;P2;SDS_P1;SDS_P2;PMS_P1;PMS_P2;Temp;Humidity;BMP_temperature;BMP_pressure;BME280_temperature;BME280_humidity;BME280_pressure;Samples;Min_cycle;Max_cycle;Signal;HPM_P1;HPM_P2
2022/01/24 00:00:28;;;;;;;37.30;11.65;;;;;;;5.26;100.00;102880.53;7400560;19;20338;-66
2022/01/24 00:02:56;;;;;;;38.35;13.40;;;;;;;5.26;100.00;102870.13;7400703;19;20018;-67
2022/01/24 00:05:24;;;;;;;43.88;13.18;;;;;;;5.27;100.00;102871.91;7401701;19;20014;-67
2022/01/24 00:07:52;;;;;;;38.72;13.35;;;;;;;5.28;100.00;102876.28;7398420;19;20513;-67
2022/01/24 00:10:26;;;;;;;41.38;12.65;;;;;;;5.27;100.00;102867.59;7400696;19;20037;-67
2022/01/24 00:13:12;;;;;;;44.65;14.52;;;;;;;5.28;100.00;102876.28;7401178;19;20040;-65
2022/01/24 00:15:58;;;;;;;45.22;13.95;;;;;;;5.28;100.00;102878.91;7400967;19;20018;-67
2022/01/24 00:26:41;;;;;;;51.45;14.15;;;;;;;5.28;100.00;102877.19;7397905;19;20018;-65
2022/01/24 00:26:55;;;;;;;47.65;15.43;;;;;;;5.25;100.00;102879.66;7399163;19;20090;-66
2022/01/24 00:29:26;;;;;;;50.40;15.93;;;;;;;5.24;100.00;102885.69;7399807;19;20015;-67
2022/01/24 00:31:55;;;;;;;60.28;16.60;;;;;;;5.25;100.00;102889.22;7399697;19;20496;-65
2022/01/24 00:34:23;;;;;;;52.83;16.08;;;;;;;5.18;100.00;102878.59;7399964;19;20019;-65
2022/01/24 00:36:52;;;;;;;57.08;15.80;;;;;;;5.24;100.00;102884.84;7399064;19;20018;-67
2022/01/24 00:39:20;;;;;;;49.63;15.52;;;;;;;5.23;100.00;102881.31;7399455;19;20367;-66
2022/01/24 00:42:00;;;;;;;47.00;15.13;;;;;;;5.25;100.00;102884.00;7399273;19;20475;-66
2022/01/24 00:44:44;;;;;;;56.83;16.80;;;;;;;5.25;100.00;102881.41;7398819;19;20019;-66
2022/01/24 00:47:18;;;;;;;56.13;16.43;;;;;;;5.26;100.00;102883.16;7398640;19;20018;-66
2022/01/24 00:49:54;;;;;;;49.75;15.10;;;;;;;5.26;100.00;102886.66;7398986;19;20457;-66
2022/01/24 00:55:05;;;;;;;58.08;15.88;;;;;;;5.27;100.00;102879.72;7398084;19;20372;-65
2022/01/24 00:57:33;;;;;;;50.72;15.43;;;;;;;5.27;100.00;102880.63;7397376;19;20374;-70
2022/01/24 01:00:06;;;;;;;48.00;14.95;;;;;;;5.27;100.00;102875.41;7399153;19;20029;-66
2022/01/24 01:02:34;;;;;;;53.22;16.23;;;;;;;5.27;100.00;102875.41;7396744;19;20015;-65
2022/01/24 01:05:11;;;;;;;54.92;15.93;;;;;;;5.28;100.00;102876.28;7397129;19;20014;-65
2022/01/24 01:07:52;;;;;;;52.40;16.48;;;;;;;5.24;100.00;102869.22;7397305;19;20018;-66
2022/01/24 01:18:32;;;;;;;62.90;18.10;;;;;;;5.32;100.00;102876.47;7399000;19;20349;-65
2022/01/24 01:21:10;;;;;;;62.60;18.30;;;;;;;5.34;100.00;102877.38;7398428;19;20044;-65
2022/01/24 01:23:43;;;;;;;58.30;18.48;;;;;;;5.35;100.00;102880.88;7398359;19;20032;-64
2022/01/24 01:26:19;;;;;;;46.55;15.80;;;;;;;5.35;100.00;102873.94;7398478;19;20074;-66
2022/01/24 01:28:51;;;;;;;46.08;14.18;;;;;;;5.33;100.00;102870.44;7398587;19;20031;-64
2022/01/24 01:31:33;;;;;;;35.47;13.60;;;;;;;5.34;100.00;102871.31;7398538;19;20014;-65
2022/01/24 01:34:11;;;;;;;32.47;11.05;;;;;;;5.32;100.00;102866.03;7398336;19;20021;-65
2022/01/24 01:37:04;;;;;;;33.53;12.15;;;;;;;5.32;100.00;102866.03;7397753;19;20019;-65
2022/01/24 01:40:07;;;;;;;34.60;12.25;;;;;;;5.32;100.00;102860.84;7397233;19;20019;-65
2022/01/24 01:53:47;;;;;;;28.90;10.80;;;;;;;5.29;100.00;102868.53;7397882;19;20096;-65
2022/01/24 01:56:16;;;;;;;29.77;10.95;;;;;;;5.28;100.00;102866.78;7395346;19;20007;-66
2022/01/24 01:58:44;;;;;;;30.50;10.57;;;;;;;5.26;100.00;102863.22;7397114;19;20019;-66
2022/01/24 02:01:12;;;;;;;28.50;10.68;;;;;;;5.25;100.00;102866.66;7395173;19;20010;-66
2022/01/24 02:03:44;;;;;;;33.20;11.45;;;;;;;5.25;100.00;102864.06;7396717;19;20018;-66
2022/01/24 02:06:14;;;;;;;29.80;11.20;;;;;;;5.26;100.00;102867.53;7397105;19;20018;-66
2022/01/24 02:08:42;;;;;;;25.55;10.43;;;;;;;5.24;100.00;102857.06;7396902;19;20018;-66
2022/01/24 02:11:14;;;;;;;35.28;12.35;;;;;;;5.25;100.00;102855.38;7396893;19;20019;-66
2022/01/24 02:13:43;;;;;;;32.70;11.65;;;;;;;5.23;100.00;102855.28;7398202;19;20555;-66
2022/01/24 02:16:18;;;;;;;29.75;10.70;;;;;;;5.24;100.00;102858.81;7395962;19;20483;-65
2022/01/24 02:18:55;;;;;;;36.30;11.48;;;;;;;5.24;100.00;102858.81;7396218;19;20494;-65
2022/01/24 02:21:42;;;;;;;32.42;11.70;;;;;;;5.24;100.00;102856.22;7396885;19;20027;-66
2022/01/24 02:24:11;;;;;;;33.90;11.60;;;;;;;5.23;100.00;102860.50;7396122;19;20025;-66
2022/01/24 02:26:40;;;;;;;38.72;13.32;;;;;;;5.23;100.00;102863.09;7395287;19;20512;-65
2022/01/24 02:29:15;;;;;;;39.53;12.90;;;;;;;5.24;100.00;102861.41;7395837;19;20015;-66
2022/01/24 02:31:46;;;;;;;42.20;14.02;;;;;;;5.22;100.00;102866.56;7396529;19;20040;-66
2022/01/24 02:34:28;;;;;;;46.08;15.35;;;;;;;5.20;100.00;102857.81;7395649;19;20480;-66
2022/01/24 02:37:01;;;;;;;46.10;15.55;;;;;;;5.22;100.00;102862.25;7395634;19;20014;-65
2022/01/24 02:39:46;;;;;;;47.63;14.80;;;;;;;5.22;100.00;102857.03;7396436;19;20014;-65
2022/01/24 02:50:32;;;;;;;47.80;15.15;;;;;;;5.21;100.00;102856.97;7395670;19;20018;-65
2022/01/24 02:53:03;;;;;;;40.13;14.30;;;;;;;5.21;100.00;102859.59;7395706;19;20014;-64
2022/01/24 02:55:32;;;;;;;37.67;15.10;;;;;;;5.21;100.00;102859.59;7394820;19;20010;-65
2022/01/24 02:58:00;;;;;;;47.17;16.10;;;;;;;5.21;100.00;102854.38;7393969;19;20014;-65
2022/01/24 03:00:28;;;;;;;45.00;16.75;;;;;;;5.19;100.00;102854.34;7395299;19;20040;-66
2022/01/24 03:02:56;;;;;;;40.58;15.60;;;;;;;5.21;100.00;102856.97;7395434;19;20019;-64
2022/01/24 03:05:24;;;;;;;47.17;16.38;;;;;;;5.20;100.00;102857.81;7393918;19;20032;-65
2022/01/24 03:07:53;;;;;;;48.33;16.63;;;;;;;5.22;100.00;102863.97;7394087;19;20015;-67
2022/01/24 03:10:29;;;;;;;45.47;16.75;;;;;;;5.22;100.00;102863.97;7395749;19;20019;-66
2022/01/24 03:13:10;;;;;;;42.13;16.65;;;;;;;5.17;100.00;102849.91;7395482;19;20022;-65
2022/01/24 03:15:39;;;;;;;38.38;15.48;;;;;;;5.19;100.00;102859.53;7396158;19;20023;-66
2022/01/24 03:18:10;;;;;;;46.58;17.65;;;;;;;5.19;100.00;102856.03;7393377;19;20019;-65
2022/01/24 03:20:39;;;;;;;40.35;16.15;;;;;;;5.17;100.00;102856.00;7395205;19;20010;-65
2022/01/24 03:23:08;;;;;;;46.25;17.55;;;;;;;5.12;100.00;102849.75;7394655;19;20015;-65
2022/01/24 03:25:39;;;;;;;49.47;17.13;;;;;;;5.15;100.00;102855.03;7393116;19;20022;-63
2022/01/24 03:28:07;;;;;;;46.03;15.75;;;;;;;5.13;100.00;102853.22;7393824;19;20040;-65
2022/01/24 03:30:36;;;;;;;43.63;16.77;;;;;;;5.12;100.00;102849.75;7397512;19;20010;-65
2022/01/24 03:33:06;;;;;;;36.60;15.32;;;;;;;5.13;100.00;102853.22;7396243;19;20019;-65
2022/01/24 03:35:35;;;;;;;39.05;16.08;;;;;;;5.11;100.00;102847.09;7394033;19;20019;-65
2022/01/24 03:38:05;;;;;;;36.20;15.65;;;;;;;5.09;100.00;102859.16;7392509;19;20022;-65
2022/01/24 03:40:33;;;;;;;37.40;15.32;;;;;;;5.03;100.00;102845.09;7394869;19;20022;-64
2022/01/24 03:43:04;;;;;;;34.88;15.32;;;;;;;5.06;100.00;102854.72;7394104;19;20042;-64
2022/01/24 03:45:42;;;;;;;32.35;14.80;;;;;;;5.04;100.00;102854.69;7392842;19;20011;-65
2022/01/24 03:48:24;;;;;;;33.95;15.25;;;;;;;5.04;100.00;102851.19;7392262;19;20022;-64
2022/01/24 03:50:53;;;;;;;32.90;14.13;;;;;;;5.02;100.00;102852.88;7394278;19;20025;-64
2022/01/24 03:53:21;;;;;;;33.33;15.00;;;;;;;5.02;100.00;102850.25;7394512;19;20368;-65
2022/01/24 03:55:50;;;;;;;33.25;13.73;;;;;;;5.03;100.00;102852.00;7392576;19;20014;-65
2022/01/24 03:58:27;;;;;;;30.90;13.82;;;;;;;5.02;100.00;102858.06;7391765;19;20022;-64
2022/01/24 04:00:55;;;;;;;30.70;14.50;;;;;;;5.02;100.00;102860.66;7394059;19;20011;-64
2022/01/24 04:03:24;;;;;;;33.08;14.32;;;;;;;5.00;100.00;102860.59;7392946;19;20367;-65
2022/01/24 04:05:52;;;;;;;31.30;14.80;;;;;;;4.99;100.00;102860.53;7391270;19;20483;-65
2022/01/24 04:08:21;;;;;;;30.08;14.10;;;;;;;4.98;100.00;102851.88;7391344;19;20036;-65
2022/01/24 04:10:53;;;;;;;26.67;12.93;;;;;;;4.98;100.00;102859.66;7393649;19;20025;-65
2022/01/24 04:13:29;;;;;;;28.67;13.82;;;;;;;4.99;100.00;102858.84;7393511;19;20032;-65
2022/01/24 04:16:13;;;;;;;30.05;13.82;;;;;;;4.98;100.00;102854.47;7393119;19;20027;-65
2022/01/24 04:18:51;;;;;;;25.27;12.77;;;;;;;4.99;100.00;102853.63;7393415;19;20023;-65
2022/01/24 04:21:20;;;;;;;31.00;14.23;;;;;;;5.00;100.00;102860.59;7393517;19;20791;-65
2022/01/24 04:23:54;;;;;;;24.75;13.73;;;;;;;4.99;100.00;102850.13;7393885;19;20010;-65
2022/01/24 04:26:22;;;;;;;25.03;12.77;;;;;;;4.98;100.00;102854.47;7398244;19;20021;-65
2022/01/24 04:28:51;;;;;;;22.92;11.95;;;;;;;4.98;100.00;102856.16;7399436;19;20466;-66
2022/01/24 04:31:22;;;;;;;18.60;10.57;;;;;;;4.97;100.00;102854.41;7399920;19;20021;-65
2022/01/24 04:33:51;;;;;;;18.35;10.75;;;;;;;4.96;100.00;102863.03;7399817;19;20018;-65
2022/01/24 04:36:20;;;;;;;19.05;9.43;;;;;;;4.93;100.00;102861.22;7397245;19;20014;-65
2022/01/24 04:38:49;;;;;;;20.95;10.13;;;;;;;4.91;100.00;102857.66;7400013;19;20040;-65
2022/01/24 04:41:22;;;;;;;16.55;9.68;;;;;;;4.88;100.00;102855.84;7399930;19;20029;-66
2022/01/24 04:44:00;;;;;;;19.33;11.13;;;;;;;4.88;100.00;102858.44;7399752;19;20032;-65
2022/01/24 04:46:50;;;;;;;19.13;10.32;;;;;;;4.85;100.00;102855.75;7397396;19;20392;-65
2022/01/24 04:52:15;;;;;;;18.42;10.40;;;;;;;4.82;100.00;102865.16;7399918;19;20010;-65
2022/01/24 04:54:45;;;;;;;17.58;8.73;;;;;;;4.79;100.00;102860.72;7399720;19;20014;-65
2022/01/24 04:57:15;;;;;;;17.73;9.75;;;;;;;4.77;100.00;102866.72;7397328;19;20359;-67
2022/01/24 04:59:47;;;;;;;15.60;8.70;;;;;;;4.76;100.00;102871.00;7399541;19;20036;-66
2022/01/24 05:02:18;;;;;;;13.43;7.80;;;;;;;4.71;100.00;102878.66;7399093;19;20509;-65
2022/01/24 05:04:47;;;;;;;17.65;7.70;;;;;;;4.71;100.00;102872.56;7399498;19;20031;-66
2022/01/24 05:07:16;;;;;;;12.57;8.02;;;;;;;4.68;100.00;102878.53;7397971;19;20040;-65
2022/01/24 05:09:50;;;;;;;13.52;8.18;;;;;;;4.69;100.00;102879.44;7398901;19;20483;-65
2022/01/24 05:12:27;;;;;;;13.10;7.93;;;;;;;4.69;100.00;102885.50;7399395;19;20021;-65
2022/01/24 05:25:41;;;;;;;19.95;11.38;;;;;;;4.73;100.00;102884.78;7397789;19;20102;-66
2022/01/24 05:28:10;;;;;;;21.27;11.35;;;;;;;4.75;100.00;102886.56;7396091;19;20041;-66
2022/01/24 05:30:38;;;;;;;18.23;10.35;;;;;;;4.76;100.00;102890.94;7397620;19;20382;-66
2022/01/24 05:33:09;;;;;;;19.33;10.63;;;;;;;4.75;100.00;102890.03;7397214;19;20482;-65
2022/01/24 05:35:37;;;;;;;25.15;12.27;;;;;;;4.77;100.00;102897.91;7395072;19;20018;-66
2022/01/24 05:38:06;;;;;;;24.02;12.32;;;;;;;4.77;100.00;102895.31;7396061;19;20019;-65
2022/01/24 05:40:35;;;;;;;21.75;12.60;;;;;;;4.77;100.00;102897.91;7397726;19;20014;-66
2022/01/24 05:43:03;;;;;;;22.05;11.75;;;;;;;4.78;100.00;102889.25;7397090;19;20026;-65
2022/01/24 05:45:31;;;;;;;23.30;12.38;;;;;;;4.80;100.00;102892.81;7396739;19;20536;-66
2022/01/24 05:47:59;;;;;;;21.15;11.50;;;;;;;4.81;100.00;102895.47;7395721;19;20014;-66
2022/01/24 05:50:31;;;;;;;27.13;14.23;;;;;;;4.82;100.00;102888.56;7397181;19;20022;-66
2022/01/24 05:52:59;;;;;;;26.23;13.40;;;;;;;4.82;100.00;102898.97;7397903;19;20040;-66
2022/01/24 05:55:35;;;;;;;26.17;13.23;;;;;;;4.81;100.00;102889.38;7396565;19;20363;-65
2022/01/24 05:58:03;;;;;;;25.60;13.10;;;;;;;4.82;100.00;102885.97;7395794;19;20015;-65
2022/01/24 06:00:31;;;;;;;27.92;13.05;;;;;;;4.84;100.00;102892.09;7396353;19;20018;-66
2022/01/24 06:03:00;;;;;;;30.17;13.85;;;;;;;4.84;100.00;102886.88;7395965;19;20022;-66
2022/01/24 06:05:31;;;;;;;26.92;13.95;;;;;;;4.84;100.00;102889.47;7395916;19;20031;-65
2022/01/24 06:07:59;;;;;;;27.88;14.88;;;;;;;4.84;100.00;102886.88;7394303;19;20026;-65
2022/01/24 06:10:27;;;;;;;26.58;14.02;;;;;;;4.82;100.00;102896.38;7395860;19;20022;-66
2022/01/24 06:12:55;;;;;;;30.05;14.90;;;;;;;4.78;100.00;102884.06;7396045;19;20357;-65
2022/01/24 06:15:24;;;;;;;30.67;13.80;;;;;;;4.71;100.00;102885.56;7396688;19;20014;-66
2022/01/24 06:17:52;;;;;;;31.58;14.95;;;;;;;4.75;100.00;102882.22;7393110;19;20360;-66
2022/01/24 06:20:21;;;;;;;29.80;14.43;;;;;;;4.73;100.00;102887.38;7395646;19;20104;-65
2022/01/24 06:22:51;;;;;;;27.98;13.63;;;;;;;4.70;100.00;102895.09;7395596;19;20014;-66
2022/01/24 06:25:23;;;;;;;29.25;14.23;;;;;;;4.70;100.00;102891.56;7394984;19;20365;-66
2022/01/24 06:27:53;;;;;;;26.75;13.43;;;;;;;4.69;100.00;102895.03;7395479;19;20018;-66
2022/01/24 06:30:21;;;;;;;25.80;12.85;;;;;;;4.71;100.00;102896.84;7395825;19;20015;-65
2022/01/24 06:32:50;;;;;;;26.42;12.63;;;;;;;4.70;100.00;102892.47;7395699;19;20030;-66
2022/01/24 06:35:18;;;;;;;24.38;12.23;;;;;;;4.69;100.00;102906.31;7396174;19;20014;-66
2022/01/24 06:37:46;;;;;;;22.73;12.07;;;;;;;4.68;100.00;102899.34;7394356;19;20040;-66
2022/01/24 06:40:17;;;;;;;24.83;11.85;;;;;;;4.66;100.00;102910.50;7395560;19;20032;-66
2022/01/24 06:42:46;;;;;;;24.85;12.55;;;;;;;4.64;100.00;102914.75;7395538;19;20479;-65
2022/01/24 06:45:14;;;;;;;26.70;13.15;;;;;;;4.63;100.00;102905.19;7395098;19;20015;-65
2022/01/24 06:47:44;;;;;;;24.10;12.63;;;;;;;4.61;100.00;102901.66;7392790;19;20483;-67
2022/01/24 06:50:13;;;;;;;28.45;12.85;;;;;;;4.64;100.00;102906.94;7395920;19;20014;-65
2022/01/24 06:52:41;;;;;;;23.60;12.68;;;;;;;4.59;100.00;102904.19;7395401;19;20364;-66
2022/01/24 06:55:10;;;;;;;25.08;12.60;;;;;;;4.64;100.00;102917.34;7395615;19;20366;-66
2022/01/24 06:57:41;;;;;;;28.55;13.50;;;;;;;4.63;100.00;102918.19;7394586;19;20014;-66
2022/01/24 07:00:11;;;;;;;23.63;12.45;;;;;;;4.57;100.00;102919.75;7395666;19;20036;-66
2022/01/24 07:02:40;;;;;;;24.15;12.30;;;;;;;4.60;100.00;102931.97;7395619;19;20041;-67
2022/01/24 07:05:08;;;;;;;24.55;12.43;;;;;;;4.57;100.00;102927.53;7394467;19;20370;-65
2022/01/24 07:07:37;;;;;;;23.60;11.57;;;;;;;4.56;100.00;102932.66;7393716;19;20355;-65
2022/01/24 07:10:06;;;;;;;25.55;12.02;;;;;;;4.55;100.00;102938.72;7394942;19;20011;-66
2022/01/24 07:12:34;;;;;;;24.58;11.70;;;;;;;4.49;100.00;102930.69;7395081;19;20019;-66
2022/01/24 07:15:10;;;;;;;27.77;12.63;;;;;;;4.51;100.00;102944.59;7394871;19;20015;-65
2022/01/24 07:17:58;;;;;;;23.83;12.38;;;;;;;4.50;100.00;102946.31;7394045;19;20026;-65
2022/01/24 07:20:26;;;;;;;32.08;14.18;;;;;;;4.49;100.00;102939.34;7395192;19;20021;-65
2022/01/24 07:22:54;;;;;;;27.63;12.60;;;;;;;4.47;100.00;102945.31;7394441;19;20010;-66
2022/01/24 07:25:23;;;;;;;25.58;12.05;;;;;;;4.45;100.00;102946.94;7394363;19;20040;-66
2022/01/24 07:27:51;;;;;;;33.58;15.43;;;;;;;4.44;100.00;102946.09;7392954;19;20483;-66
2022/01/24 07:30:22;;;;;;;24.80;11.82;;;;;;;4.39;100.00;102935.50;7393480;19;20474;-66
2022/01/24 07:32:50;;;;;;;28.95;12.98;;;;;;;4.46;100.00;102948.72;7393939;19;20018;-66
2022/01/24 07:35:19;;;;;;;27.42;12.25;;;;;;;4.46;100.00;102943.53;7393452;19;20015;-66
2022/01/24 07:37:47;;;;;;;28.70;13.52;;;;;;;4.46;100.00;102941.84;7391958;19;20383;-66
2022/01/24 07:40:15;;;;;;;27.75;13.25;;;;;;;4.45;100.00;102941.75;7394154;19;20569;-66
2022/01/24 07:42:55;;;;;;;27.25;13.63;;;;;;;4.44;100.00;102940.88;7393651;19;20018;-66
2022/01/24 07:45:28;;;;;;;26.10;12.68;;;;;;;4.46;100.00;102936.66;7394566;19;20019;-66
2022/01/24 07:47:56;;;;;;;27.23;12.25;;;;;;;4.47;100.00;102934.91;7391987;19;20043;-65
2022/01/24 07:50:27;;;;;;;29.88;13.48;;;;;;;4.50;100.00;102940.22;7393875;19;20006;-64
2022/01/24 07:52:56;;;;;;;27.33;13.00;;;;;;;4.50;100.00;102941.13;7394231;19;20021;-65
2022/01/24 07:55:24;;;;;;;28.73;12.90;;;;;;;4.53;100.00;102940.34;7393445;19;20014;-67
2022/01/24 07:57:53;;;;;;;25.25;12.15;;;;;;;4.53;100.00;102950.75;7392543;19;20041;-66
2022/01/24 08:00:21;;;;;;;26.63;13.38;;;;;;;4.53;100.00;102956.81;7399467;19;20042;-67
2022/01/24 08:02:52;;;;;;;25.83;12.63;;;;;;;4.52;100.00;102954.19;7400905;19;20503;-66
2022/01/24 08:05:21;;;;;;;21.08;9.88;;;;;;;4.52;100.00;102956.78;7401267;19;20014;-66
2022/01/24 08:07:49;;;;;;;25.90;10.77;;;;;;;4.51;100.00;102957.59;7399375;19;20018;-67
2022/01/24 08:10:17;;;;;;;21.98;10.40;;;;;;;4.52;100.00;102959.38;7404637;19;20047;-66
2022/01/24 08:12:45;;;;;;;17.40;8.65;;;;;;;4.50;100.00;102959.31;7403793;19;20014;-69
2022/01/24 08:15:16;;;;;;;17.92;8.68;;;;;;;4.51;100.00;102962.78;7400851;19;20082;-65
2022/01/24 08:17:45;;;;;;;21.10;9.88;;;;;;;4.49;100.00;102967.94;7398583;19;20018;-67
2022/01/24 08:20:18;;;;;;;20.08;9.45;;;;;;;4.48;100.00;102965.28;7400881;19;20041;-66
2022/01/24 08:22:47;;;;;;;18.95;9.50;;;;;;;4.46;100.00;102965.25;7400599;19;20023;-67
2022/01/24 08:25:16;;;;;;;18.80;9.73;;;;;;;4.49;100.00;102977.47;7399906;19;20014;-66
2022/01/24 08:27:46;;;;;;;22.27;9.95;;;;;;;4.49;100.00;102978.34;7397578;19;20041;-67
2022/01/24 08:30:16;;;;;;;19.05;10.32;;;;;;;4.49;100.00;102974.88;7399977;19;20018;-67
2022/01/24 08:32:46;;;;;;;20.40;10.63;;;;;;;4.50;100.00;102971.41;7399653;19;20392;-66
2022/01/24 08:35:18;;;;;;;20.73;10.10;;;;;;;4.53;100.00;102972.44;7399826;19;20010;-66
2022/01/24 08:37:46;;;;;;;18.95;9.38;;;;;;;4.55;100.00;102975.13;7398039;19;20019;-66
2022/01/24 08:40:22;;;;;;;16.58;9.60;;;;;;;4.59;100.00;102973.50;7399797;19;20045;-67
2022/01/24 08:42:58;;;;;;;17.23;9.02;;;;;;;4.62;100.00;102979.69;7400229;19;20019;-66
2022/01/24 08:45:47;;;;;;;17.02;9.05;;;;;;;4.66;100.00;102975.50;7399640;19;20014;-65
2022/01/24 08:48:18;;;;;;;15.45;7.78;;;;;;;4.69;100.00;102971.31;7397155;19;20508;-67
2022/01/24 08:50:50;;;;;;;15.23;8.02;;;;;;;4.72;100.00;102976.63;7400076;19;20036;-65
2022/01/24 08:53:19;;;;;;;15.70;8.27;;;;;;;4.76;100.00;102969.81;7402231;19;20074;-66
2022/01/24 08:55:48;;;;;;;14.50;7.90;;;;;;;4.80;100.00;102970.84;7398786;19;20033;-66
2022/01/24 08:58:16;;;;;;;19.33;9.52;;;;;;;4.85;100.00;102966.69;7397393;19;20018;-66
2022/01/24 09:00:46;;;;;;;17.48;8.07;;;;;;;4.88;100.00;102959.03;7399247;19;20032;-66
2022/01/24 09:03:15;;;;;;;17.08;8.82;;;;;;;4.95;100.00;102966.19;7398776;19;20024;-66
2022/01/24 09:05:43;;;;;;;19.42;9.70;;;;;;;5.02;100.00;102975.16;7399464;19;20010;-66
2022/01/24 09:08:14;;;;;;;19.90;10.10;;;;;;;5.09;100.00;102968.44;7396928;19;20015;-66
2022/01/24 09:10:44;;;;;;;14.20;8.38;;;;;;;5.14;100.00;102966.88;7398546;19;20011;-67
2022/01/24 09:13:13;;;;;;;20.02;10.05;;;;;;;5.17;100.00;102961.81;7399902;19;20014;-68
2022/01/24 09:15:41;;;;;;;15.02;8.73;;;;;;;5.21;100.00;102961.09;7398786;19;20027;-65
2022/01/24 09:18:09;;;;;;;14.82;8.35;;;;;;;5.26;100.00;102967.34;7396681;19;20040;-67
2022/01/24 09:20:39;;;;;;;14.55;7.95;;;;;;;5.31;100.00;102959.72;7398321;19;20374;-66
2022/01/24 09:23:09;;;;;;;11.73;7.57;;;;;;;5.37;100.00;102965.09;7398774;19;20014;-66
2022/01/24 09:25:40;;;;;;;13.63;8.25;;;;;;;5.40;100.00;102960.03;7398131;19;20090;-66
2022/01/24 09:28:08;;;;;;;14.77;8.55;;;;;;;5.47;100.00;102966.31;7395517;19;20353;-66
2022/01/24 09:30:36;;;;;;;17.27;9.90;;;;;;;5.50;100.00;102956.91;7398034;19;20505;-66
2022/01/24 09:33:05;;;;;;;14.45;7.72;;;;;;;5.54;100.00;102960.50;7398143;19;20119;-66
2022/01/24 09:35:33;;;;;;;10.98;6.88;;;;;;;5.56;100.00;102966.66;7397293;19;20018;-67
2022/01/24 09:38:01;;;;;;;9.65;6.43;;;;;;;5.57;100.00;102960.59;7396140;19;20022;-66
2022/01/24 09:40:29;;;;;;;8.18;5.57;;;;;;;5.55;100.00;102957.06;7397607;19;20014;-66
2022/01/24 09:43:00;;;;;;;12.00;6.90;;;;;;;5.53;100.00;102959.63;7397360;19;20014;-66
2022/01/24 09:45:29;;;;;;;8.65;5.63;;;;;;;5.50;100.00;102958.63;7397532;19;20474;-65
2022/01/24 09:47:59;;;;;;;8.38;6.00;;;;;;;5.46;100.00;102962.84;7395441;19;20027;-66
2022/01/24 09:50:27;;;;;;;9.73;6.13;;;;;;;5.41;100.00;102956.59;7396524;19;20483;-67
2022/01/24 09:52:55;;;;;;;9.98;6.00;;;;;;;5.38;100.00;102954.78;7397322;19;20018;-66
2022/01/24 09:55:26;;;;;;;12.77;7.68;;;;;;;5.41;100.00;102950.47;7397667;19;20040;-65
2022/01/24 09:58:03;;;;;;;12.45;7.55;;;;;;;5.43;100.00;102946.22;7394830;19;20014;-64
2022/01/24 10:00:31;;;;;;;8.85;5.70;;;;;;;5.46;100.00;102946.31;7397872;19;20019;-66
2022/01/24 10:03:00;;;;;;;10.15;5.88;;;;;;;5.42;100.00;102937.53;7397626;19;20036;-66
2022/01/24 10:05:30;;;;;;;9.02;5.65;;;;;;;5.51;100.00;102952.56;7397936;19;20037;-67
2022/01/24 10:08:01;;;;;;;8.00;4.85;;;;;;;5.53;100.00;102951.81;7395398;19;20479;-65
2022/01/24 10:10:31;;;;;;;10.50;5.30;;;;;;;5.57;100.00;102950.19;7396764;19;20014;-65
2022/01/24 10:18:52;;;;;;;7.63;5.40;;;;;;;5.68;100.00;102947.97;7396746;19;20504;-66
2022/01/24 10:21:20;;;;;;;6.53;4.47;;;;;;;5.73;100.00;102942.91;7395171;19;20018;-66
2022/01/24 10:23:49;;;;;;;6.18;4.35;;;;;;;5.77;100.00;102944.78;7395977;19;20356;-66
2022/01/24 10:26:18;;;;;;;7.40;4.15;;;;;;;5.80;100.00;102942.25;7396297;19;20014;-64
2022/01/24 10:28:49;;;;;;;8.10;5.55;;;;;;;5.83;100.00;102935.44;7396461;19;20032;-66
2022/01/24 10:31:21;;;;;;;5.63;4.03;;;;;;;5.90;100.00;102946.06;7396975;19;20015;-67
2022/01/24 10:34:05;;;;;;;6.43;3.60;;;;;;;5.90;100.00;102941.72;7396572;19;20015;-66
2022/01/24 10:36:40;;;;;;;6.40;4.50;;;;;;;5.90;100.00;102944.34;7395385;19;20519;-65
2022/01/24 10:39:14;;;;;;;6.47;3.88;;;;;;;5.90;100.00;102931.31;7395908;19;20088;-66
2022/01/24 10:41:56;;;;;;;5.20;2.90;;;;;;;5.91;100.00;102938.28;7396520;19;20036;-66
2022/01/24 10:44:36;;;;;;;5.05;3.35;;;;;;;5.92;100.00;102929.66;7395642;19;20386;-66
2022/01/24 10:47:16;;;;;;;5.78;3.38;;;;;;;5.91;100.00;102927.88;7395629;19;20015;-65
2022/01/24 10:49:45;;;;;;;5.80;3.30;;;;;;;5.86;100.00;102926.84;7396329;19;20110;-66
2022/01/24 10:52:15;;;;;;;7.68;3.78;;;;;;;5.90;100.00;102931.31;7396044;19;20015;-66
2022/01/24 10:54:43;;;;;;;5.95;3.40;;;;;;;5.90;100.00;102923.50;7395918;19;20116;-65
2022/01/24 10:57:29;;;;;;;4.78;2.80;;;;;;;5.91;100.00;102914.84;7392599;19;20476;-66
2022/01/24 11:00:08;;;;;;;5.35;2.78;;;;;;;5.93;100.00;102920.13;7394781;19;20022;-66
2022/01/24 11:02:40;;;;;;;7.50;3.90;;;;;;;5.92;100.00;102908.81;7395177;19;20362;-67
2022/01/24 11:05:17;;;;;;;6.45;3.20;;;;;;;5.90;99.58;102910.47;7395192;19;20461;-67
2022/01/24 11:07:54;;;;;;;6.60;3.85;;;;;;;5.90;100.00;102912.19;7394020;19;20022;-68
2022/01/24 11:10:22;;;;;;;7.03;4.07;;;;;;;5.92;100.00;102911.41;7394300;19;20496;-66
2022/01/24 11:12:52;;;;;;;6.20;4.15;;;;;;;5.95;100.00;102910.63;7394778;19;20040;-67
2022/01/24 11:15:23;;;;;;;6.55;3.50;;;;;;;6.01;100.00;102913.47;7393902;19;20018;-66
2022/01/24 11:17:52;;;;;;;4.53;2.63;;;;;;;6.02;98.81;102908.28;7393172;19;20465;-67
2022/01/24 11:20:21;;;;;;;6.57;3.13;;;;;;;6.02;99.15;102908.28;7394361;19;20490;-67
2022/01/24 11:22:58;;;;;;;4.35;2.55;;;;;;;6.01;98.74;102897.81;7395144;19;20024;-67
2022/01/24 11:25:27;;;;;;;4.40;2.95;;;;;;;6.01;97.31;102901.31;7394885;19;20487;-66
2022/01/24 11:27:56;;;;;;;5.13;2.75;;;;;;;5.94;97.13;102882.78;7393012;19;20036;-67
2022/01/24 11:30:32;;;;;;;4.15;2.58;;;;;;;5.97;97.59;102891.59;7394366;19;20048;-68
2022/01/24 11:33:05;;;;;;;6.07;3.10;;;;;;;5.95;97.22;102888.06;7396233;19;20024;-68
2022/01/24 11:35:39;;;;;;;5.15;3.33;;;;;;;5.96;98.21;102892.44;7402248;19;20042;-68
2022/01/24 11:38:27;;;;;;;4.53;2.97;;;;;;;5.96;96.33;102888.94;7399517;19;20035;-67
2022/01/24 11:41:00;;;;;;;6.63;3.20;;;;;;;5.99;97.58;102883.84;7401884;19;20547;-70
2022/01/24 11:43:35;;;;;;;5.65;3.17;;;;;;;5.97;98.15;102869.88;7401322;19;20022;-69
2022/01/24 11:46:28;;;;;;;6.90;4.07;;;;;;;6.02;98.07;102876.16;7403576;19;20420;-69
2022/01/24 11:49:05;;;;;;;7.68;3.67;;;;;;;6.06;98.76;102869.31;7398849;19;20011;-69
2022/01/24 11:51:35;;;;;;;6.30;3.25;;;;;;;6.11;99.09;102867.72;7403167;19;20014;-69
2022/01/24 11:54:03;;;;;;;8.75;4.30;;;;;;;6.14;99.02;102863.50;7401016;19;20082;-68
2022/01/24 11:56:35;;;;;;;6.13;3.25;;;;;;;6.19;97.74;102863.63;7400611;19;20021;-68
2022/01/24 11:59:22;;;;;;;7.20;3.60;;;;;;;6.24;98.64;102863.78;7401881;19;20091;-69
2022/01/24 12:02:09;;;;;;;5.68;3.25;;;;;;;6.28;97.63;102865.63;7401695;19;20019;-68
2022/01/24 12:04:51;;;;;;;7.43;4.25;;;;;;;6.29;98.06;102863.09;7400877;19;20083;-67
2022/01/24 12:07:22;;;;;;;5.90;3.58;;;;;;;6.33;98.77;102867.56;7399410;19;20046;-67
2022/01/24 12:09:50;;;;;;;8.05;4.25;;;;;;;6.35;98.70;102868.47;7400870;19;20341;-67
2022/01/24 12:12:46;;;;;;;7.18;3.42;;;;;;;6.39;98.74;102859.00;7401083;19;20014;-68
2022/01/24 12:16:05;;;;;;;3.45;2.50;;;;;;;6.42;97.95;102859.13;7399993;19;20014;-66
2022/01/24 12:19:00;;;;;;;4.53;2.70;;;;;;;6.42;96.76;102856.50;7397625;19;20015;-66
2022/01/24 12:21:31;;;;;;;6.47;3.83;;;;;;;6.43;97.82;102860.00;7400114;19;20031;-67
2022/01/24 12:24:03;;;;;;;3.95;2.67;;;;;;;6.42;96.03;102860.81;7400344;19;20015;-67
2022/01/24 12:26:34;;;;;;;3.13;1.95;;;;;;;6.38;95.90;102853.75;7399856;19;20014;-69
2022/01/24 12:29:05;;;;;;;3.90;2.28;;;;;;;6.35;96.87;102851.94;7397663;19;20532;-67
2022/01/24 12:31:42;;;;;;;4.35;2.65;;;;;;;6.31;96.43;102858.78;7400421;19;20025;-68